createdAt,value
2023-03-21T00:35:51.518Z,21.96
2023-03-21T00:37:08.176Z,21.89
2023-03-21T00:38:12.730Z,21.91
2023-03-21T00:39:17.006Z,21.9
2023-03-21T00:40:27.803Z,21.89
2023-03-21T00:41:49.411Z,21.88
2023-03-21T00:42:53.877Z,21.87
2023-03-21T00:43:58.149Z,21.86
2023-03-21T00:45:02.480Z,21.86
2023-03-21T00:46:06.771Z,21.86
2023-03-21T00:47:11.256Z,21.87
2023-03-21T00:48:15.776Z,21.86
2023-03-21T00:49:20.213Z,21.86
2023-03-21T00:50:24.491Z,21.87
2023-03-21T00:51:28.763Z,21.89
2023-03-21T00:52:40.457Z,21.86
2023-03-21T00:53:45.095Z,21.86
2023-03-21T00:54:49.398Z,21.83
2023-03-21T00:55:53.706Z,21.88
2023-03-21T00:56:58.030Z,21.88
2023-03-21T00:58:02.745Z,21.87
2023-03-21T00:59:07.077Z,21.87
2023-03-21T01:00:11.399Z,21.9
2023-03-21T01:01:15.759Z,21.89
2023-03-21T01:02:20.225Z,21.92
2023-03-21T01:03:25.658Z,21.9
2023-03-21T01:04:30.102Z,21.91
2023-03-21T01:05:34.584Z,21.9
2023-03-21T01:06:39.758Z,21.89
2023-03-21T01:07:44.113Z,21.91
2023-03-21T01:08:53.139Z,21.89
2023-03-21T01:09:57.622Z,21.89
2023-03-21T01:11:01.917Z,21.91
2023-03-21T01:12:06.261Z,21.91
2023-03-21T01:13:10.573Z,21.91
2023-03-21T01:14:22.291Z,21.89
2023-03-21T01:15:27.401Z,21.86
2023-03-21T01:16:31.901Z,21.85
2023-03-21T01:17:36.541Z,21.87
2023-03-21T01:18:40.854Z,21.86
2023-03-21T01:19:51.854Z,21.86
2023-03-21T01:20:56.575Z,21.87
2023-03-21T01:22:00.858Z,21.88
2023-03-21T01:23:05.168Z,21.89
2023-03-21T01:24:09.526Z,21.86
2023-03-21T01:25:22.176Z,21.84
2023-03-21T01:26:27.029Z,21.85
2023-03-21T01:27:31.351Z,21.87
2023-03-21T01:28:35.626Z,21.86
2023-03-21T01:29:39.948Z,21.89
2023-03-21T01:30:44.254Z,21.88
2023-03-21T01:31:48.595Z,21.89
2023-03-21T01:32:53.074Z,21.9
2023-03-21T01:33:57.374Z,21.89
2023-03-21T01:35:01.683Z,21.9
2023-03-21T01:36:12.618Z,21.83
2023-03-21T01:37:18.579Z,21.81
2023-03-21T01:38:22.859Z,21.83
2023-03-21T01:39:27.156Z,21.85
2023-03-21T01:40:31.511Z,21.85
2023-03-21T01:41:42.833Z,21.86
2023-03-21T01:42:48.246Z,21.86
2023-03-21T01:43:52.602Z,21.86
2023-03-21T01:44:56.930Z,21.85
2023-03-21T01:46:01.387Z,21.85
2023-03-21T01:47:13.141Z,21.86
2023-03-21T01:48:17.535Z,21.83
2023-03-21T01:49:22.042Z,21.85
2023-03-21T01:50:26.333Z,21.85
2023-03-21T01:51:30.627Z,21.84
2023-03-21T01:52:38.190Z,21.84
2023-03-21T01:53:43.032Z,21.85
2023-03-21T01:54:47.309Z,21.86
2023-03-21T01:55:51.669Z,21.84
2023-03-21T01:56:55.986Z,21.81
2023-03-21T01:58:06.176Z,21.83
2023-03-21T01:59:11.089Z,21.84
2023-03-21T02:00:15.425Z,21.84
2023-03-21T02:01:19.821Z,21.83
2023-03-21T02:02:24.219Z,21.83
2023-03-21T02:03:35.576Z,21.84
2023-03-21T02:04:41.022Z,21.84
2023-03-21T02:05:45.355Z,21.83
2023-03-21T02:06:49.699Z,21.82
2023-03-21T02:07:55.039Z,21.81
2023-03-21T02:08:59.385Z,21.83
2023-03-21T02:10:06.761Z,21.83
2023-03-21T02:11:11.087Z,21.83
2023-03-21T02:12:15.365Z,21.82
2023-03-21T02:13:19.816Z,21.81
2023-03-21T02:14:29.149Z,21.81
2023-03-21T02:15:33.729Z,21.83
2023-03-21T02:16:38.677Z,21.81
2023-03-21T02:17:43.150Z,21.76
2023-03-21T02:18:47.417Z,21.74
2023-03-21T02:19:53.651Z,21.77
2023-03-21T02:20:58.111Z,21.77
2023-03-21T02:22:02.435Z,21.73
2023-03-21T02:23:06.800Z,21.77
2023-03-21T02:24:11.105Z,21.78
2023-03-21T02:25:21.732Z,21.78
2023-03-21T02:26:39.474Z,21.77
2023-03-21T02:27:52.468Z,21.77
2023-03-21T02:28:56.776Z,21.78
2023-03-21T02:30:01.134Z,21.76
2023-03-21T02:31:05.480Z,21.78
2023-03-21T02:32:20.169Z,21.75
2023-03-21T02:33:40.707Z,21.74
2023-03-21T02:34:44.978Z,21.74
2023-03-21T02:35:53.591Z,21.75
2023-03-21T02:37:17.097Z,21.74
2023-03-21T02:38:23.748Z,21.73
2023-03-21T02:39:28.052Z,21.74
2023-03-21T02:40:32.381Z,21.76
2023-03-21T02:41:40.673Z,21.74
2023-03-21T02:42:51.530Z,21.73
2023-03-21T02:44:05.296Z,21.72
2023-03-21T02:45:09.617Z,21.73
2023-03-21T02:46:13.969Z,21.72
2023-03-21T02:47:18.519Z,21.72
2023-03-21T02:48:27.994Z,21.72
2023-03-21T02:49:53.290Z,21.72
2023-03-21T02:50:57.612Z,21.73
2023-03-21T02:52:12.115Z,21.72
2023-03-21T02:53:41.117Z,21.7
2023-03-21T02:54:48.487Z,21.71
2023-03-21T02:55:53.012Z,21.72
2023-03-21T02:56:57.337Z,21.71
2023-03-21T02:58:12.238Z,21.7
2023-03-21T02:59:17.122Z,21.68
2023-03-21T03:00:21.496Z,21.67
2023-03-21T03:01:25.835Z,21.67
2023-03-21T03:02:30.230Z,21.67
2023-03-21T03:03:35.069Z,21.69
2023-03-21T03:04:39.440Z,21.68
2023-03-21T03:05:43.913Z,21.68
2023-03-21T03:06:48.194Z,21.68
2023-03-21T03:07:52.502Z,21.69
2023-03-21T03:09:02.496Z,21.67
2023-03-21T03:10:07.184Z,21.66
2023-03-21T03:11:11.496Z,21.68
2023-03-21T03:12:15.786Z,21.67
2023-03-21T03:13:20.142Z,21.66
2023-03-21T03:16:06.981Z,21.66
2023-03-21T03:17:11.471Z,21.66
2023-03-21T03:18:15.780Z,21.67
2023-03-21T03:19:20.078Z,21.68
2023-03-21T03:20:24.370Z,21.7
2023-03-21T03:21:28.696Z,21.7
2023-03-21T03:22:33.012Z,21.69
2023-03-21T03:23:37.315Z,21.71
2023-03-21T03:24:41.639Z,21.73
2023-03-21T03:25:46.189Z,21.73
2023-03-21T03:26:50.468Z,21.72
2023-03-21T03:27:54.749Z,21.71
2023-03-21T03:28:59.046Z,21.68
2023-03-21T03:30:03.345Z,21.69
2023-03-21T03:31:09.849Z,21.66
2023-03-21T03:32:15.493Z,21.63
2023-03-21T03:33:19.812Z,21.6
2023-03-21T03:34:24.129Z,21.63
2023-03-21T03:35:28.415Z,21.62
2023-03-21T03:36:33.459Z,21.62
2023-03-21T03:37:38.220Z,21.63
2023-03-21T03:38:42.536Z,21.63
2023-03-21T03:39:46.851Z,21.64
2023-03-21T03:40:51.156Z,21.63
2023-03-21T03:42:25.189Z,21.64
2023-03-21T03:43:32.488Z,21.65
2023-03-21T03:44:36.841Z,21.65
2023-03-21T03:45:41.154Z,21.63
2023-03-21T03:46:45.451Z,21.62
2023-03-21T03:47:56.660Z,21.62
2023-03-21T03:49:01.698Z,21.63
2023-03-21T03:50:06.051Z,21.61
2023-03-21T03:51:10.414Z,21.63
2023-03-21T03:52:14.711Z,21.63
2023-03-21T03:53:19.049Z,21.64
2023-03-21T03:54:23.368Z,21.65
2023-03-21T03:55:27.717Z,21.64
2023-03-21T03:56:32.021Z,21.64
2023-03-21T03:57:36.401Z,21.64
2023-03-21T03:58:45.498Z,21.66
2023-03-21T03:59:50.329Z,21.65
2023-03-21T04:00:54.658Z,21.65
2023-03-21T04:01:59.082Z,21.6
2023-03-21T04:03:03.734Z,21.63
2023-03-21T04:04:13.137Z,21.63
2023-03-21T04:05:18.012Z,21.62
2023-03-21T04:06:22.354Z,21.63
2023-03-21T04:07:26.703Z,21.62
2023-03-21T04:08:31.014Z,21.58
2023-03-21T04:09:43.946Z,21.61
2023-03-21T04:10:48.732Z,21.61
2023-03-21T04:11:53.054Z,21.62
2023-03-21T04:12:57.314Z,21.6
2023-03-21T04:14:01.623Z,21.63
2023-03-21T04:15:10.637Z,21.64
2023-03-21T04:16:15.404Z,21.65
2023-03-21T04:17:19.892Z,21.64
2023-03-21T04:18:24.217Z,21.6
2023-03-21T04:19:28.496Z,21.58
2023-03-21T04:20:37.149Z,21.63
2023-03-21T04:21:48.567Z,21.63
2023-03-21T04:22:52.834Z,21.63
2023-03-21T04:23:57.111Z,21.6
2023-03-21T04:25:01.440Z,21.61
2023-03-21T04:26:05.750Z,21.6
2023-03-21T04:27:10.309Z,21.59
2023-03-21T04:28:14.640Z,21.57
2023-03-21T04:29:18.913Z,21.56
2023-03-21T04:30:23.207Z,21.62
2023-03-21T04:31:27.673Z,21.64
2023-03-21T04:32:32.097Z,21.61
2023-03-21T04:33:36.528Z,21.6
2023-03-21T04:34:40.982Z,21.63
2023-03-21T04:35:45.248Z,21.61
2023-03-21T04:36:49.721Z,21.63
2023-03-21T04:37:54.052Z,21.67
2023-03-21T04:38:58.374Z,21.65
2023-03-21T04:40:02.667Z,21.66
2023-03-21T04:41:07.330Z,21.68
2023-03-21T04:42:11.665Z,21.66
2023-03-21T04:43:16.222Z,21.64
2023-03-21T04:44:20.526Z,21.65
2023-03-21T04:45:24.805Z,21.65
2023-03-21T04:46:29.086Z,21.67
2023-03-21T04:47:33.400Z,21.7
2023-03-21T04:48:38.004Z,21.7
2023-03-21T04:49:42.368Z,21.7
2023-03-21T04:50:46.680Z,21.71
2023-03-21T04:51:50.971Z,21.72
2023-03-21T04:52:55.290Z,21.71
2023-03-21T04:53:59.599Z,21.75
2023-03-21T04:55:03.944Z,21.71
2023-03-21T04:56:08.216Z,21.77
2023-03-21T04:57:12.579Z,21.76
2023-03-21T04:58:16.876Z,21.73
2023-03-21T04:59:21.193Z,21.69
2023-03-21T05:00:25.478Z,21.64
2023-03-21T05:01:29.872Z,21.6
2023-03-21T05:02:34.496Z,21.57
2023-03-21T05:03:38.773Z,21.53
2023-03-21T05:04:43.407Z,21.57
2023-03-21T05:05:47.694Z,21.58
2023-03-21T05:06:52.039Z,21.63
2023-03-21T05:07:56.379Z,21.65
2023-03-21T05:09:00.666Z,21.68
2023-03-21T05:10:05.070Z,21.73
2023-03-21T05:11:09.378Z,21.76
2023-03-21T05:12:13.648Z,21.84
2023-03-21T05:13:17.930Z,21.89
2023-03-21T05:14:22.282Z,21.95
2023-03-21T05:15:26.591Z,22
2023-03-21T05:16:31.071Z,22.03
2023-03-21T05:17:35.425Z,22.08
2023-03-21T05:18:39.731Z,22.11
2023-03-21T05:19:44.044Z,22.14
2023-03-21T05:20:48.362Z,22.15
2023-03-21T05:21:52.661Z,22.16
2023-03-21T05:22:57.007Z,22.18
2023-03-21T05:24:01.331Z,22.19
2023-03-21T05:25:05.606Z,22.2
2023-03-21T05:26:09.892Z,22.21
2023-03-21T05:27:14.242Z,22.22
2023-03-21T05:28:18.551Z,22.22
2023-03-21T05:29:22.872Z,22.23
2023-03-21T05:30:27.178Z,22.24
2023-03-21T05:31:31.442Z,22.25
2023-03-21T05:32:35.731Z,22.25
2023-03-21T05:33:40.061Z,22.25
2023-03-21T05:34:44.365Z,22.25
2023-03-21T05:35:48.648Z,22.25
2023-03-21T05:36:53.098Z,22.24
2023-03-21T05:37:57.458Z,22.25
2023-03-21T05:39:02.011Z,22.24
2023-03-21T05:40:06.406Z,22.23
2023-03-21T05:41:10.700Z,22.23
2023-03-21T05:42:15.033Z,22.22
2023-03-21T05:43:19.342Z,22.2
2023-03-21T05:44:23.638Z,22.19
2023-03-21T05:45:27.955Z,22.18
2023-03-21T05:46:32.289Z,22.17
2023-03-21T05:47:36.796Z,22.17
2023-03-21T05:48:41.237Z,22.16
2023-03-21T05:49:45.520Z,22.15
2023-03-21T05:50:49.784Z,22.15
2023-03-21T05:51:56.832Z,22.14
2023-03-21T05:53:01.145Z,22.11
2023-03-21T05:54:05.419Z,22.11
2023-03-21T05:55:09.722Z,22.1
2023-03-21T05:56:14.009Z,22.09
2023-03-21T05:57:18.314Z,22.07
2023-03-21T05:58:22.572Z,22.07
2023-03-21T05:59:26.846Z,22.06
2023-03-21T06:00:31.157Z,22.07
2023-03-21T06:01:35.460Z,22.04
2023-03-21T06:02:39.853Z,22.04
2023-03-21T06:03:44.449Z,22.02
2023-03-21T06:04:48.859Z,22
2023-03-21T06:05:53.171Z,21.99
2023-03-21T06:06:57.494Z,21.97
2023-03-21T06:08:01.827Z,21.98
2023-03-21T06:09:06.144Z,21.99
2023-03-21T06:10:10.552Z,21.96
2023-03-21T06:11:14.856Z,21.98
2023-03-21T06:12:19.175Z,21.95
2023-03-21T06:13:23.483Z,21.92
2023-03-21T06:14:27.790Z,21.92
2023-03-21T06:15:32.077Z,21.92
2023-03-21T06:16:36.358Z,21.91
2023-03-21T06:17:40.683Z,21.89
2023-03-21T06:18:45.002Z,21.9
2023-03-21T06:19:49.291Z,21.9
2023-03-21T06:20:53.618Z,21.85
2023-03-21T06:21:57.923Z,21.84
2023-03-21T06:23:02.222Z,21.84
2023-03-21T06:24:06.549Z,21.84
2023-03-21T06:25:10.858Z,21.85
2023-03-21T06:26:15.137Z,21.87
2023-03-21T06:27:19.435Z,21.86
2023-03-21T06:28:23.740Z,21.88
2023-03-21T06:29:28.009Z,21.87
2023-03-21T06:30:32.354Z,21.88
2023-03-21T06:31:36.803Z,21.86
2023-03-21T06:32:41.336Z,21.86
2023-03-21T06:33:45.956Z,21.87
2023-03-21T06:34:50.265Z,21.86
2023-03-21T06:35:54.634Z,21.85
2023-03-21T06:36:59.116Z,21.83
2023-03-21T06:38:03.404Z,21.84
2023-03-21T06:39:08.254Z,21.82
2023-03-21T06:40:12.544Z,21.81
2023-03-21T06:41:16.828Z,21.82
2023-03-21T06:42:21.177Z,21.82
2023-03-21T06:43:25.461Z,21.81
2023-03-21T06:44:29.820Z,21.78
2023-03-21T06:45:34.131Z,21.78
2023-03-21T06:46:39.533Z,21.78
2023-03-21T06:47:46.504Z,21.77
2023-03-21T06:48:50.956Z,21.78
2023-03-21T06:49:55.259Z,21.8
2023-03-21T06:50:59.555Z,21.79
2023-03-21T06:52:03.890Z,21.82
2023-03-21T06:53:08.165Z,21.85
2023-03-21T06:54:12.582Z,21.86
2023-03-21T06:55:16.958Z,21.87
2023-03-21T06:56:21.246Z,21.88
2023-03-21T06:57:25.529Z,21.89
2023-03-21T06:58:29.842Z,21.91
2023-03-21T06:59:34.142Z,21.91
2023-03-21T07:00:38.553Z,21.91
2023-03-21T07:01:42.940Z,21.92
2023-03-21T07:02:48.766Z,21.91
2023-03-21T07:03:54.769Z,21.93
2023-03-21T07:04:59.102Z,21.93
2023-03-21T07:06:03.558Z,21.92
2023-03-21T07:07:07.882Z,21.92
2023-03-21T07:08:12.198Z,21.89
2023-03-21T07:09:16.532Z,21.89
2023-03-21T07:10:20.811Z,21.89
2023-03-21T07:11:25.088Z,21.9
2023-03-21T07:12:29.405Z,21.91
2023-03-21T07:13:33.696Z,21.89
2023-03-21T07:14:38.019Z,21.89
2023-03-21T07:15:42.317Z,21.9
2023-03-21T07:16:46.724Z,21.88
2023-03-21T07:17:51.218Z,21.88
2023-03-21T07:18:55.491Z,21.86
2023-03-21T07:19:59.791Z,21.86
2023-03-21T07:21:04.106Z,21.86
2023-03-21T07:22:08.370Z,21.84
2023-03-21T07:23:12.650Z,21.84
2023-03-21T07:24:19.553Z,21.83
2023-03-21T07:25:23.884Z,21.83
2023-03-21T07:26:28.363Z,21.8
2023-03-21T07:27:32.666Z,21.8
2023-03-21T07:28:36.994Z,21.78
2023-03-21T07:29:41.287Z,21.76
2023-03-21T07:30:45.573Z,21.74
2023-03-21T07:31:49.919Z,21.74
2023-03-21T07:32:54.434Z,21.74
2023-03-21T07:33:58.758Z,21.77
2023-03-21T07:35:03.088Z,21.78
2023-03-21T07:36:07.387Z,21.77
2023-03-21T07:37:12.033Z,21.78
2023-03-21T07:38:16.328Z,21.77
2023-03-21T07:39:20.649Z,21.76
2023-03-21T07:40:24.953Z,21.75
2023-03-21T07:41:29.317Z,21.75
2023-03-21T07:42:33.638Z,21.74
2023-03-21T07:43:38.993Z,21.76
2023-03-21T07:44:43.786Z,21.76
2023-03-21T07:45:48.141Z,21.73
2023-03-21T07:46:52.591Z,21.72
2023-03-21T07:47:56.940Z,21.72
2023-03-21T07:49:01.319Z,21.74
2023-03-21T07:50:05.604Z,21.73
2023-03-21T07:51:09.916Z,21.72
2023-03-21T07:52:14.281Z,21.73
2023-03-21T07:53:18.615Z,21.78
2023-03-21T07:54:22.912Z,21.79
2023-03-21T07:55:27.276Z,21.81
2023-03-21T07:56:31.584Z,21.84
2023-03-21T07:57:35.925Z,21.85
2023-03-21T07:58:40.215Z,21.86
2023-03-21T07:59:44.524Z,21.86
2023-03-21T08:00:48.871Z,21.86
2023-03-21T08:01:53.225Z,21.86
2023-03-21T08:02:58.962Z,21.88
2023-03-21T08:04:03.670Z,21.88
2023-03-21T08:05:08.023Z,21.88
2023-03-21T08:06:12.357Z,21.88
2023-03-21T08:07:16.617Z,21.87
2023-03-21T08:08:22.041Z,21.88
2023-03-21T08:09:26.345Z,21.89
2023-03-21T08:10:33.583Z,21.89
2023-03-21T08:11:37.884Z,21.86
2023-03-21T08:12:42.164Z,21.86
2023-03-21T08:13:46.437Z,21.87
2023-03-21T08:14:50.754Z,21.87
2023-03-21T08:15:55.300Z,21.85
2023-03-21T08:16:59.767Z,21.85
2023-03-21T08:18:04.341Z,21.86
2023-03-21T08:19:08.677Z,21.86
2023-03-21T08:20:12.951Z,21.85
2023-03-21T08:21:17.226Z,21.86
2023-03-21T08:22:21.546Z,21.83
2023-03-21T08:23:25.858Z,21.84
2023-03-21T08:24:30.174Z,21.82
2023-03-21T08:25:34.497Z,21.82
2023-03-21T08:26:39.416Z,21.81
2023-03-21T08:27:43.758Z,21.8
2023-03-21T08:28:48.082Z,21.81
2023-03-21T08:29:52.396Z,21.81
2023-03-21T08:30:56.764Z,21.8
2023-03-21T08:32:01.196Z,21.79
2023-03-21T08:33:05.479Z,21.77
2023-03-21T08:34:09.765Z,21.73
2023-03-21T08:35:14.083Z,21.74
2023-03-21T08:36:18.454Z,21.76
2023-03-21T08:37:22.968Z,21.76
2023-03-21T08:38:27.249Z,21.75
2023-03-21T08:39:31.610Z,21.75
2023-03-21T08:40:36.229Z,21.75
2023-03-21T08:41:40.552Z,21.76
2023-03-21T08:42:44.907Z,21.76
2023-03-21T08:43:49.240Z,21.75
2023-03-21T08:44:53.586Z,21.76
2023-03-21T08:45:57.956Z,21.75
2023-03-21T08:47:03.375Z,21.75
2023-03-21T08:48:07.759Z,21.73
2023-03-21T08:49:12.198Z,21.72
2023-03-21T08:50:16.490Z,21.7
2023-03-21T08:51:20.807Z,21.71
2023-03-21T08:52:25.164Z,21.7
2023-03-21T08:53:29.598Z,21.73
2023-03-21T08:54:33.897Z,21.73
2023-03-21T08:55:38.559Z,21.71
2023-03-21T08:56:43.381Z,21.7
2023-03-21T08:57:47.721Z,21.7
2023-03-21T08:58:52.038Z,21.69
2023-03-21T08:59:56.351Z,21.71
2023-03-21T09:01:00.690Z,21.7
2023-03-21T09:02:05.010Z,21.67
2023-03-21T09:03:11.662Z,21.68
2023-03-21T09:04:16.105Z,21.66
2023-03-21T09:05:20.548Z,21.67
2023-03-21T09:06:24.885Z,21.67
2023-03-21T09:07:29.179Z,21.67
2023-03-21T09:08:33.473Z,21.66
2023-03-21T09:09:37.785Z,21.67
2023-03-21T09:10:42.190Z,21.7
2023-03-21T09:11:46.500Z,21.71
2023-03-21T09:12:50.846Z,21.74
2023-03-21T09:13:55.165Z,21.75
2023-03-21T09:14:59.473Z,21.78
2023-03-21T09:16:03.789Z,21.79
2023-03-21T09:17:08.293Z,21.81
2023-03-21T09:18:12.593Z,21.84
2023-03-21T09:19:17.045Z,21.85
2023-03-21T09:20:21.344Z,21.86
2023-03-21T09:21:25.760Z,21.88
2023-03-21T09:22:30.044Z,21.91
2023-03-21T09:23:34.347Z,21.91
2023-03-21T09:24:38.667Z,21.91
2023-03-21T09:25:43.048Z,21.91
2023-03-21T09:26:47.342Z,21.91
2023-03-21T09:27:51.682Z,21.92
2023-03-21T09:28:56.003Z,21.92
2023-03-21T09:30:00.296Z,21.91
2023-03-21T09:31:04.687Z,21.91
2023-03-21T09:32:09.075Z,21.91
2023-03-21T09:33:13.452Z,21.89
2023-03-21T09:34:17.804Z,21.88
2023-03-21T09:35:22.107Z,21.87
2023-03-21T09:36:26.497Z,21.87
2023-03-21T09:37:30.804Z,21.87
2023-03-21T09:38:35.304Z,21.87
2023-03-21T09:39:39.661Z,21.87
2023-03-21T09:40:44.338Z,21.87
2023-03-21T09:41:48.684Z,21.85
2023-03-21T09:42:53.047Z,21.84
2023-03-21T09:43:57.365Z,21.84
2023-03-21T09:45:01.649Z,21.81
2023-03-21T09:46:05.985Z,21.83
2023-03-21T09:47:12.330Z,21.82
2023-03-21T09:48:16.708Z,21.83
2023-03-21T09:49:21.307Z,21.8
2023-03-21T09:50:25.607Z,21.79
2023-03-21T09:51:29.898Z,21.82
2023-03-21T09:52:34.176Z,21.82
2023-03-21T09:53:38.461Z,21.81
2023-03-21T09:54:42.793Z,21.8
2023-03-21T09:55:47.196Z,21.81
2023-03-21T09:56:51.494Z,21.77
2023-03-21T09:57:55.781Z,21.78
2023-03-21T09:59:00.100Z,21.79
2023-03-21T10:00:04.755Z,21.79
2023-03-21T10:01:09.121Z,21.8
2023-03-21T10:02:13.585Z,21.8
2023-03-21T10:03:18.065Z,21.79
2023-03-21T10:04:22.513Z,21.79
2023-03-21T10:05:27.100Z,21.79
2023-03-21T10:06:31.366Z,21.78
2023-03-21T10:07:35.644Z,21.78
2023-03-21T10:08:39.956Z,21.76
2023-03-21T10:09:44.368Z,21.76
2023-03-21T10:10:48.653Z,21.76
2023-03-21T10:11:52.952Z,21.75
2023-03-21T10:12:57.500Z,21.73
2023-03-21T10:14:01.837Z,21.73
2023-03-21T10:15:06.112Z,21.74
2023-03-21T10:16:10.596Z,21.73
2023-03-21T10:17:15.015Z,21.73
2023-03-21T10:18:19.300Z,21.74
2023-03-21T10:19:23.596Z,21.74
2023-03-21T10:20:27.887Z,21.72
2023-03-21T10:21:56.834Z,21.72
2023-03-21T10:23:06.943Z,21.69
2023-03-21T10:24:11.402Z,21.66
2023-03-21T10:25:15.693Z,21.65
2023-03-21T10:26:21.417Z,21.65
2023-03-21T10:27:25.869Z,21.59
2023-03-21T10:28:34.433Z,21.57
2023-03-21T10:29:56.147Z,21.57
2023-03-21T10:31:00.439Z,21.51
2023-03-21T10:32:04.877Z,21.47
2023-03-21T10:33:09.792Z,21.48
2023-03-21T10:34:14.330Z,21.44
2023-03-21T10:35:18.672Z,21.45
2023-03-21T10:36:23.074Z,21.47
2023-03-21T10:37:27.362Z,21.42
2023-03-21T10:38:31.654Z,21.43
2023-03-21T10:39:35.959Z,21.42
2023-03-21T10:40:40.540Z,21.38
2023-03-21T10:41:44.859Z,21.37
2023-03-21T10:42:49.181Z,21.39
2023-03-21T10:43:53.510Z,21.37
2023-03-21T10:44:57.806Z,21.37
2023-03-21T10:46:02.209Z,21.31
2023-03-21T10:47:07.172Z,21.27
2023-03-21T10:48:12.486Z,21.28
2023-03-21T10:49:17.198Z,21.28
2023-03-21T10:50:21.656Z,21.28
2023-03-21T10:51:26.115Z,21.31
2023-03-21T10:52:30.442Z,21.31
2023-03-21T10:53:34.744Z,21.31
2023-03-21T10:54:39.076Z,21.27
2023-03-21T10:55:43.461Z,21.28
2023-03-21T10:56:47.747Z,21.14
2023-03-21T10:57:52.043Z,21.01
2023-03-21T10:58:56.341Z,21.03
2023-03-21T11:00:00.656Z,21.03
2023-03-21T11:01:04.982Z,21.04
2023-03-21T11:02:09.733Z,21.06
2023-03-21T11:03:14.146Z,21.08
2023-03-21T11:04:18.444Z,21.1
2023-03-21T11:05:22.759Z,21.07
2023-03-21T11:06:27.042Z,21.09
2023-03-21T11:07:31.325Z,21.08
2023-03-21T11:08:35.636Z,21.08
2023-03-21T11:09:39.936Z,21.06
2023-03-21T11:10:44.332Z,21.05
2023-03-21T11:11:48.602Z,21.05
2023-03-21T11:12:53.008Z,21.05
2023-03-21T11:13:57.297Z,21.06
2023-03-21T11:15:01.595Z,21.06
2023-03-21T11:16:05.917Z,21.06
2023-03-21T11:17:10.511Z,21.06
2023-03-21T11:18:14.920Z,21.06
2023-03-21T11:19:19.243Z,21.07
2023-03-21T11:20:23.567Z,21.05
2023-03-21T11:21:29.582Z,21.05
2023-03-21T11:22:34.145Z,21.09
2023-03-21T11:23:38.438Z,21.05
2023-03-21T11:24:42.746Z,21.03
2023-03-21T11:25:47.051Z,21.06
2023-03-21T11:26:51.401Z,21.07
2023-03-21T11:27:55.714Z,21.03
2023-03-21T11:29:00.033Z,21.06
2023-03-21T11:30:04.498Z,21.1
2023-03-21T11:31:08.896Z,21.14
2023-03-21T11:32:13.378Z,21.15
2023-03-21T11:33:17.679Z,21.19
2023-03-21T11:34:22.012Z,21.2
2023-03-21T11:35:26.304Z,21.22
2023-03-21T11:36:30.607Z,21.25
2023-03-21T11:37:34.896Z,21.33
2023-03-21T11:38:39.219Z,21.37
2023-03-21T11:39:43.568Z,21.42
2023-03-21T11:40:47.901Z,21.47
2023-03-21T11:41:52.211Z,21.51
2023-03-21T11:42:56.548Z,21.54
2023-03-21T11:44:01.088Z,21.57
2023-03-21T11:45:05.400Z,21.6
2023-03-21T11:46:09.853Z,21.63
2023-03-21T11:47:14.285Z,21.67
2023-03-21T11:48:18.733Z,21.7
2023-03-21T11:49:23.179Z,21.73
2023-03-21T11:50:27.494Z,21.76
2023-03-21T11:51:31.778Z,21.77
2023-03-21T11:52:36.072Z,21.79
2023-03-21T11:53:40.387Z,21.8
2023-03-21T11:54:44.743Z,21.82
2023-03-21T11:55:49.063Z,21.84
2023-03-21T11:56:53.434Z,21.83
2023-03-21T11:58:00.127Z,21.85
2023-03-21T11:59:17.564Z,21.85
2023-03-21T12:00:21.894Z,21.86
2023-03-21T12:01:26.196Z,21.85
2023-03-21T12:02:30.501Z,21.85
2023-03-21T12:03:45.291Z,21.85
2023-03-21T12:04:52.655Z,21.83
2023-03-21T12:05:56.964Z,21.82
2023-03-21T12:07:01.248Z,21.81
2023-03-21T12:08:05.545Z,21.8
2023-03-21T12:09:09.831Z,21.78
2023-03-21T12:10:14.146Z,21.79
2023-03-21T12:11:18.556Z,21.77
2023-03-21T12:12:29.953Z,21.77
2023-03-21T12:13:42.660Z,21.76
2023-03-21T12:14:46.956Z,21.76
2023-03-21T12:15:53.157Z,21.76
2023-03-21T12:16:59.370Z,21.75
2023-03-21T12:18:03.704Z,21.77
2023-03-21T12:19:08.033Z,21.76
2023-03-21T12:20:12.384Z,21.74
2023-03-21T12:21:16.739Z,21.75
2023-03-21T12:22:21.109Z,21.73
2023-03-21T12:23:25.506Z,21.73
2023-03-21T12:24:29.946Z,21.71
2023-03-21T12:25:34.245Z,21.7
2023-03-21T12:26:39.578Z,21.7
2023-03-21T12:27:43.895Z,21.68
2023-03-21T12:28:48.285Z,21.67
2023-03-21T12:29:52.574Z,21.67
2023-03-21T12:30:56.941Z,21.66
2023-03-21T12:32:01.338Z,21.64
2023-03-21T12:33:05.641Z,21.64
2023-03-21T12:34:09.939Z,21.64
2023-03-21T12:35:14.221Z,21.64
2023-03-21T12:36:18.620Z,21.64
2023-03-21T12:37:23.154Z,21.64
2023-03-21T12:38:27.482Z,21.64
2023-03-21T12:39:31.768Z,21.62
2023-03-21T12:40:36.073Z,21.62
2023-03-21T12:41:40.349Z,21.64
2023-03-21T12:42:44.687Z,21.66
2023-03-21T12:43:48.968Z,21.61
2023-03-21T12:44:55.111Z,21.62
2023-03-21T12:45:59.458Z,21.6
2023-03-21T12:47:03.892Z,21.61
2023-03-21T12:48:08.685Z,21.62
2023-03-21T12:49:13.010Z,21.63
2023-03-21T12:50:17.330Z,21.63
2023-03-21T12:51:21.625Z,21.62
2023-03-21T12:52:25.919Z,21.62
2023-03-21T12:53:30.220Z,21.63
2023-03-21T12:54:34.499Z,21.65
2023-03-21T12:55:39.087Z,21.66
2023-03-21T12:56:44.114Z,21.68
2023-03-21T12:57:56.984Z,21.69
2023-03-21T12:59:01.813Z,21.72
2023-03-21T13:00:06.099Z,21.73
2023-03-21T13:01:10.473Z,21.75
2023-03-21T13:02:14.939Z,21.77
2023-03-21T13:03:22.816Z,21.79
2023-03-21T13:04:45.595Z,21.81
2023-03-21T13:05:52.135Z,21.82
2023-03-21T13:06:56.466Z,21.83
2023-03-21T13:08:00.811Z,21.84
2023-03-21T13:09:05.108Z,21.85
2023-03-21T13:10:09.417Z,21.86
2023-03-21T13:11:13.810Z,21.85
2023-03-21T13:12:18.195Z,21.84
2023-03-21T13:13:22.515Z,21.84
2023-03-21T13:14:26.849Z,21.85
2023-03-21T13:15:31.145Z,21.84
2023-03-21T13:16:35.473Z,21.82
2023-03-21T13:17:39.956Z,21.81
2023-03-21T13:18:44.251Z,21.82
2023-03-21T13:19:48.589Z,21.81
2023-03-21T13:20:52.887Z,21.81
2023-03-21T13:21:57.199Z,21.8
2023-03-21T13:23:01.554Z,21.79
2023-03-21T13:24:05.861Z,21.78
2023-03-21T13:25:10.164Z,21.79
2023-03-21T13:26:14.478Z,21.78
2023-03-21T13:27:18.745Z,21.77
2023-03-21T13:28:23.021Z,21.77
2023-03-21T13:29:27.297Z,21.75
2023-03-21T13:30:31.609Z,21.75
2023-03-21T13:31:50.781Z,21.73
2023-03-21T13:32:59.703Z,21.72
2023-03-21T13:34:04.037Z,21.71
2023-03-21T13:35:08.312Z,21.71
2023-03-21T13:36:12.658Z,21.69
2023-03-21T13:37:17.168Z,21.69
2023-03-21T13:38:21.472Z,21.68
2023-03-21T13:39:25.772Z,21.67
2023-03-21T13:40:30.126Z,21.67
2023-03-21T13:41:34.450Z,21.66
2023-03-21T13:42:38.742Z,21.65
2023-03-21T13:43:43.073Z,21.65
2023-03-21T13:44:49.637Z,21.64
2023-03-21T13:45:54.472Z,21.63
2023-03-21T13:46:58.943Z,21.65
2023-03-21T13:48:03.562Z,21.65
2023-03-21T13:49:08.194Z,21.68
2023-03-21T13:50:12.503Z,21.67
2023-03-21T13:51:17.073Z,21.67
2023-03-21T13:52:21.339Z,21.67
2023-03-21T13:53:25.700Z,21.65
2023-03-21T13:54:30.013Z,21.68
2023-03-21T13:55:34.324Z,21.66
2023-03-21T13:56:39.396Z,21.65
2023-03-21T13:57:43.720Z,21.64
2023-03-21T13:58:48.075Z,21.64
2023-03-21T13:59:52.451Z,21.65
2023-03-21T14:00:56.815Z,21.66
2023-03-21T14:02:01.265Z,21.62
2023-03-21T14:03:05.550Z,21.63
2023-03-21T14:04:09.884Z,21.64
2023-03-21T14:05:14.266Z,21.65
2023-03-21T14:06:18.758Z,21.65
2023-03-21T14:07:23.152Z,21.65
2023-03-21T14:08:36.707Z,21.66
2023-03-21T14:09:41.395Z,21.66
2023-03-21T14:10:45.684Z,21.65
2023-03-21T14:11:50.075Z,21.64
2023-03-21T14:12:57.150Z,21.66
2023-03-21T14:14:01.465Z,21.62
2023-03-21T14:15:14.216Z,21.6
2023-03-21T14:16:20.746Z,21.6
2023-03-21T14:17:25.149Z,21.58
2023-03-21T14:18:52.709Z,21.57
2023-03-21T14:19:59.107Z,21.57
2023-03-21T14:21:05.041Z,21.56
2023-03-21T14:22:23.494Z,21.56
2023-03-21T14:23:27.848Z,21.56
2023-03-21T14:24:32.142Z,21.53
2023-03-21T14:25:40.879Z,21.54
2023-03-21T14:26:52.710Z,21.54
2023-03-21T14:27:57.009Z,21.56
2023-03-21T14:29:01.851Z,21.55
2023-03-21T14:30:17.634Z,21.54
2023-03-21T14:31:22.243Z,21.53
2023-03-21T14:32:26.794Z,21.5
2023-03-21T14:33:31.126Z,21.49
2023-03-21T14:34:35.396Z,21.49
2023-03-21T14:35:40.079Z,21.48
2023-03-21T14:36:48.657Z,21.48
2023-03-21T14:38:02.014Z,21.49
2023-03-21T14:39:06.312Z,21.47